createdAt,value
2019-05-26T00:02:25.394Z,9.13
2019-05-26T00:06:27.338Z,11.22
2019-05-26T00:10:29.297Z,7.80
2019-05-26T00:14:31.282Z,10.03
2019-05-26T00:18:33.675Z,10.27
2019-05-26T00:22:35.662Z,10.77
2019-05-26T00:26:38.713Z,10.93
2019-05-26T00:30:40.661Z,9.67
2019-05-26T00:34:42.612Z,8.65
2019-05-26T00:38:44.578Z,11.63
2019-05-26T00:42:46.520Z,10.80
2019-05-26T00:46:48.556Z,11.30
2019-05-26T00:50:50.679Z,9.38
2019-05-26T00:54:52.752Z,10.50
2019-05-26T00:58:54.866Z,8.87
2019-05-26T01:02:56.825Z,7.63
2019-05-26T01:06:58.798Z,7.97
2019-05-26T01:11:01.597Z,8.90
2019-05-26T01:15:04.580Z,8.87
2019-05-26T01:19:06.731Z,10.32
2019-05-26T01:23:08.696Z,9.40
2019-05-26T01:27:10.646Z,10.27
2019-05-26T01:31:13.671Z,12.23
2019-05-26T01:35:15.782Z,7.92
2019-05-26T01:39:17.744Z,10.13
2019-05-26T01:43:19.692Z,12.17
2019-05-26T01:47:21.670Z,9.03
2019-05-26T01:51:23.689Z,10.32
2019-05-26T01:55:25.640Z,7.50
2019-05-26T01:59:28.557Z,11.30
2019-05-26T02:03:31.463Z,7.83
2019-05-26T02:07:33.658Z,10.90
2019-05-26T02:11:35.647Z,8.93
2019-05-26T02:15:37.668Z,8.10
2019-05-26T02:19:39.584Z,9.43
2019-05-26T02:23:41.497Z,7.00
2019-05-26T02:27:43.417Z,10.30
2019-05-26T02:31:45.428Z,11.30
2019-05-26T02:35:47.356Z,9.70
2019-05-26T02:39:49.273Z,8.43
2019-05-26T02:43:51.246Z,7.87
2019-05-26T02:47:53.146Z,9.57
2019-05-26T02:51:55.091Z,10.70
2019-05-26T02:55:57.376Z,13.90
2019-05-26T02:59:59.286Z,14.80
2019-05-26T03:04:01.615Z,16.57
2019-05-26T03:08:05.850Z,16.20
2019-05-26T03:12:08.620Z,16.33
2019-05-26T03:16:12.250Z,14.00
2019-05-26T03:20:17.568Z,11.43
2019-05-26T03:24:21.338Z,10.95
2019-05-26T03:28:23.266Z,13.40
2019-05-26T03:32:25.185Z,12.10
2019-05-26T03:36:27.134Z,13.20
2019-05-26T03:40:29.072Z,8.10
2019-05-26T03:44:30.993Z,8.68
2019-05-26T03:48:32.900Z,10.90
2019-05-26T03:52:34.805Z,8.83
2019-05-26T03:56:36.712Z,8.30
2019-05-26T04:00:38.609Z,8.00
2019-05-26T04:04:40.554Z,12.20
2019-05-26T04:08:42.512Z,9.90
2019-05-26T04:12:44.414Z,11.77
2019-05-26T04:16:47.068Z,9.90
2019-05-26T04:20:48.980Z,9.40
2019-05-26T04:24:51.952Z,9.90
2019-05-26T04:28:53.884Z,11.50
2019-05-26T04:32:55.823Z,11.77
2019-05-26T04:36:57.710Z,11.97
2019-05-26T04:40:59.632Z,12.67
2019-05-26T04:45:01.550Z,13.07
2019-05-26T04:49:04.716Z,12.60
2019-05-26T04:53:07.427Z,12.37
2019-05-26T04:57:09.462Z,10.27
2019-05-26T05:01:11.454Z,13.87
2019-05-26T05:05:14.055Z,14.60
2019-05-26T05:09:16.057Z,15.00
2019-05-26T05:13:18.058Z,15.80
2019-05-26T05:17:19.996Z,15.35
2019-05-26T05:21:21.948Z,15.98
2019-05-26T05:25:23.875Z,17.23
2019-05-26T05:29:25.802Z,17.82
2019-05-26T05:33:27.759Z,18.90
2019-05-26T05:37:29.693Z,18.53
2019-05-26T05:41:31.615Z,19.50
2019-05-26T05:45:33.573Z,20.77
2019-05-26T05:49:35.503Z,23.27
2019-05-26T05:53:37.526Z,20.83
2019-05-26T05:57:39.448Z,18.93
2019-05-26T06:01:41.380Z,20.67
2019-05-26T06:05:43.305Z,21.47
2019-05-26T06:09:45.273Z,20.50
2019-05-26T06:13:47.167Z,19.83
2019-05-26T06:17:49.154Z,18.77
2019-05-26T06:21:51.180Z,19.00
2019-05-26T06:25:53.215Z,16.73
2019-05-26T06:29:58.718Z,15.93
2019-05-26T06:33:58.764Z,15.43
2019-05-26T06:38:00.694Z,13.83
2019-05-26T06:42:02.753Z,13.40
2019-05-26T06:46:04.862Z,13.07
2019-05-26T06:50:07.999Z,13.03
2019-05-26T06:54:09.920Z,13.07
2019-05-26T06:58:11.840Z,13.50
2019-05-26T07:02:14.540Z,14.17
2019-05-26T07:06:16.469Z,12.70
2019-05-26T07:10:18.670Z,13.10
2019-05-26T07:14:20.582Z,13.08
2019-05-26T07:18:22.847Z,11.38
2019-05-26T07:22:24.762Z,12.83
2019-05-26T07:26:26.699Z,13.15
2019-05-26T07:30:29.581Z,9.23
2019-05-26T07:34:31.499Z,10.70
2019-05-26T07:38:33.420Z,9.40
2019-05-26T07:42:35.904Z,8.33
2019-05-26T07:46:37.820Z,10.03
2019-05-26T07:50:39.745Z,9.53
2019-05-26T07:54:41.745Z,7.77
2019-05-26T07:58:43.683Z,7.13
2019-05-26T08:02:45.612Z,6.53
2019-05-26T08:06:47.545Z,7.03
2019-05-26T08:10:49.746Z,5.83
2019-05-26T08:14:51.634Z,6.10
2019-05-26T08:18:53.550Z,5.83
2019-05-26T08:22:55.458Z,4.87
2019-05-26T08:26:57.387Z,5.30
2019-05-26T08:30:59.318Z,4.87
2019-05-26T08:35:01.862Z,4.83
2019-05-26T08:39:05.464Z,4.40
2019-05-26T08:43:07.471Z,4.60
2019-05-26T08:47:09.395Z,4.03
2019-05-26T08:51:11.315Z,4.40
2019-05-26T08:55:14.415Z,4.00
2019-05-26T08:59:17.295Z,4.50
2019-05-26T09:03:19.204Z,3.85
2019-05-26T09:07:21.178Z,4.03
2019-05-26T09:11:24.305Z,4.22
2019-05-26T09:15:26.256Z,3.90
2019-05-26T09:19:28.147Z,4.10
2019-05-26T09:23:33.583Z,4.05
2019-05-26T09:27:35.499Z,3.47
2019-05-26T09:31:38.853Z,3.20
2019-05-26T09:35:40.817Z,3.30
2019-05-26T09:39:42.739Z,2.90
2019-05-26T09:43:44.638Z,3.07
2019-05-26T09:47:47.900Z,2.70
2019-05-26T09:51:49.800Z,2.80
2019-05-26T09:55:51.707Z,2.60
2019-05-26T09:59:53.696Z,2.90
2019-05-26T10:03:55.610Z,2.80
2019-05-26T10:07:57.521Z,2.93
2019-05-26T10:11:59.434Z,3.20
2019-05-26T10:16:01.588Z,3.17
2019-05-26T10:20:05.314Z,2.90
2019-05-26T10:24:07.430Z,3.80
2019-05-26T10:28:09.342Z,3.42
2019-05-26T10:32:11.331Z,3.60
2019-05-26T10:36:14.308Z,2.90
2019-05-26T10:40:16.686Z,3.00
2019-05-26T10:44:18.584Z,3.36
2019-05-26T10:48:20.498Z,3.20
2019-05-26T10:52:22.410Z,3.30
2019-05-26T10:56:24.381Z,3.20
2019-05-26T11:00:26.676Z,3.20
2019-05-26T11:04:28.669Z,3.20
2019-05-26T11:08:30.586Z,2.95
2019-05-26T11:12:33.470Z,2.65
2019-05-26T11:16:35.482Z,3.00
2019-05-26T11:20:37.543Z,2.70
2019-05-26T11:24:40.100Z,3.02
2019-05-26T11:28:43.084Z,3.05
2019-05-26T11:32:44.984Z,2.87
2019-05-26T11:36:46.926Z,2.90
2019-05-26T11:40:48.889Z,2.95
2019-05-26T11:44:50.833Z,3.00
2019-05-26T11:48:53.099Z,2.80
2019-05-26T11:52:56.021Z,2.67
2019-05-26T11:56:57.932Z,2.75
2019-05-26T12:00:59.850Z,2.87
2019-05-26T12:05:01.796Z,2.45
2019-05-26T12:09:05.495Z,3.08
2019-05-26T12:13:07.387Z,2.40
2019-05-26T12:17:09.309Z,2.75
2019-05-26T12:21:11.238Z,2.62
2019-05-26T12:25:14.908Z,3.20
2019-05-26T12:29:16.835Z,2.92
2019-05-26T12:33:18.730Z,3.30
2019-05-26T12:37:21.630Z,2.80
2019-05-26T12:41:23.982Z,2.60
2019-05-26T12:45:25.957Z,2.80
2019-05-26T12:49:28.127Z,2.80
2019-05-26T12:53:30.055Z,2.30
2019-05-26T12:57:32.091Z,2.20
2019-05-26T13:01:34.181Z,2.35
2019-05-26T13:05:36.118Z,2.10
2019-05-26T13:09:38.132Z,2.30
2019-05-26T13:13:40.045Z,2.40
2019-05-26T13:17:42.085Z,2.40
2019-05-26T13:21:43.988Z,3.00
2019-05-26T13:25:45.911Z,2.20
2019-05-26T13:29:47.834Z,2.50
2019-05-26T13:33:49.745Z,2.42
2019-05-26T13:37:51.874Z,2.35
2019-05-26T13:41:53.781Z,2.37
2019-05-26T13:46:07.824Z,2.27
2019-05-26T13:50:10.762Z,2.72
2019-05-26T13:54:13.933Z,2.10
2019-05-26T13:58:15.931Z,2.10
2019-05-26T14:02:17.857Z,2.15
2019-05-26T14:06:19.780Z,2.20
2019-05-26T14:10:38.858Z,2.00
2019-05-26T14:14:41.521Z,2.12
2019-05-26T14:18:45.739Z,2.15
2019-05-26T14:22:47.657Z,2.08
2019-05-26T14:26:49.564Z,2.10
2019-05-26T14:30:51.498Z,2.20
2019-05-26T14:34:53.398Z,2.40
2019-05-26T14:38:55.315Z,2.15
2019-05-26T14:42:57.519Z,2.00
2019-05-26T14:46:59.613Z,2.08
2019-05-26T14:51:01.548Z,2.20
2019-05-26T14:55:03.518Z,2.08
2019-05-26T14:59:05.508Z,1.95
2019-05-26T15:03:07.440Z,2.20
2019-05-26T15:07:09.444Z,2.33
2019-05-26T15:11:11.340Z,2.25
2019-05-26T15:15:15.436Z,2.10
2019-05-26T15:19:17.332Z,1.85
2019-05-26T15:23:19.247Z,2.40
2019-05-26T15:27:21.187Z,2.15
2019-05-26T15:31:23.189Z,2.10
2019-05-26T15:35:26.359Z,1.80
2019-05-26T15:39:28.361Z,2.33
2019-05-26T15:43:31.718Z,2.20
2019-05-26T15:47:34.677Z,2.02
2019-05-26T15:51:36.634Z,2.20
2019-05-26T15:55:40.118Z,2.35
2019-05-26T15:59:42.263Z,2.10
2019-05-26T16:03:44.181Z,2.27
2019-05-26T16:07:46.093Z,2.50
2019-05-26T16:11:48.006Z,2.40
2019-05-26T16:15:49.934Z,2.52
2019-05-26T16:19:51.910Z,2.15
2019-05-26T16:23:53.817Z,2.50
2019-05-26T16:27:55.741Z,2.33
2019-05-26T16:31:57.646Z,2.40
2019-05-26T16:35:59.550Z,2.33
2019-05-26T16:40:01.520Z,2.37
2019-05-26T16:44:04.909Z,2.42
2019-05-26T16:48:06.829Z,2.25
2019-05-26T16:52:10.087Z,2.25
2019-05-26T16:56:12.008Z,2.17
2019-05-26T17:00:14.869Z,2.20
2019-05-26T17:04:16.833Z,2.12
2019-05-26T17:08:19.477Z,2.16
2019-05-26T17:12:21.369Z,2.20
2019-05-26T17:16:23.305Z,2.10
2019-05-26T17:20:25.295Z,2.30
2019-05-26T17:24:28.391Z,2.00
2019-05-26T17:28:30.310Z,2.30
2019-05-26T17:32:32.245Z,2.30
2019-05-26T17:36:34.168Z,2.13
2019-05-26T17:40:36.090Z,2.12
2019-05-26T17:44:37.991Z,2.00
2019-05-26T17:48:39.912Z,2.10
2019-05-26T17:52:41.862Z,2.23
2019-05-26T17:56:43.833Z,1.83
2019-05-26T18:00:45.723Z,2.10
2019-05-26T18:04:47.668Z,2.13
2019-05-26T18:08:49.575Z,2.10
2019-05-26T18:12:51.506Z,2.20
2019-05-26T18:16:53.413Z,2.17
2019-05-26T18:20:55.352Z,1.70
2019-05-26T18:24:58.947Z,2.13
2019-05-26T18:29:00.891Z,2.10
2019-05-26T18:33:02.827Z,2.10
2019-05-26T18:37:05.117Z,2.27
2019-05-26T18:41:07.902Z,2.33
2019-05-26T18:45:11.821Z,2.37
2019-05-26T18:49:14.211Z,2.13
2019-05-26T18:53:16.178Z,1.63
2019-05-26T18:57:18.076Z,1.80
2019-05-26T19:01:20.119Z,2.17
2019-05-26T19:05:32.846Z,2.03
2019-05-26T19:09:25.623Z,2.22
2019-05-26T19:13:27.572Z,1.82
2019-05-26T19:17:29.487Z,2.00
2019-05-26T19:21:31.427Z,2.10
2019-05-26T19:25:33.337Z,1.97
2019-05-26T19:29:35.300Z,2.40
2019-05-26T19:33:37.231Z,2.10
2019-05-26T19:37:39.177Z,2.40
2019-05-26T19:41:41.082Z,2.10
2019-05-26T19:45:43.950Z,2.27
2019-05-26T19:49:45.889Z,2.10
2019-05-26T19:53:47.784Z,2.57
2019-05-26T19:57:49.869Z,2.60
2019-05-26T20:01:51.780Z,2.40
2019-05-26T20:05:54.669Z,2.30
2019-05-26T20:09:56.594Z,2.50
2019-05-26T20:14:00.015Z,2.90
2019-05-26T20:18:02.023Z,3.00
2019-05-26T20:22:04.605Z,2.70
2019-05-26T20:26:08.172Z,3.07
2019-05-26T20:30:12.257Z,4.13
2019-05-26T20:34:14.333Z,3.37
2019-05-26T20:38:16.225Z,3.40
2019-05-26T20:42:18.180Z,3.00
2019-05-26T20:46:20.098Z,3.27
2019-05-26T20:50:29.178Z,3.30
2019-05-26T20:54:26.248Z,3.00
2019-05-26T20:58:28.432Z,2.80
2019-05-26T21:02:30.336Z,3.43
2019-05-26T21:06:32.239Z,3.20
2019-05-26T21:10:34.230Z,3.63
2019-05-26T21:14:36.140Z,3.60
2019-05-26T21:18:38.063Z,3.80
2019-05-26T21:22:39.999Z,3.10
2019-05-26T21:26:42.133Z,3.30
2019-05-26T21:30:44.065Z,3.37
2019-05-26T21:34:47.176Z,3.40
2019-05-26T21:38:49.184Z,3.80
2019-05-26T21:42:52.115Z,3.60
2019-05-26T21:46:54.061Z,3.60
2019-05-26T21:50:55.954Z,3.33
2019-05-26T21:54:58.220Z,3.47
2019-05-26T21:59:00.125Z,3.90
2019-05-26T22:03:02.057Z,4.10
2019-05-26T22:07:03.970Z,4.08
2019-05-26T22:11:05.895Z,4.05
2019-05-26T22:15:10.103Z,3.90
2019-05-26T22:19:12.043Z,4.00
2019-05-26T22:23:13.937Z,4.00
2019-05-26T22:27:15.847Z,3.90
2019-05-26T22:31:17.746Z,3.83
2019-05-26T22:35:19.676Z,4.27
2019-05-26T22:39:21.571Z,3.80
2019-05-26T22:43:23.481Z,4.13
2019-05-26T22:47:25.399Z,4.40
2019-05-26T22:51:27.376Z,3.80
2019-05-26T22:55:29.302Z,4.30
2019-05-26T22:59:31.209Z,3.95
2019-05-26T23:03:33.126Z,4.50
2019-05-26T23:07:35.028Z,3.00
2019-05-26T23:11:38.037Z,4.50
2019-05-26T23:15:40.031Z,3.97
2019-05-26T23:19:41.944Z,3.80
2019-05-26T23:23:43.841Z,4.60
2019-05-26T23:27:45.765Z,4.60
2019-05-26T23:31:47.671Z,3.70
2019-05-26T23:35:49.584Z,4.33
2019-05-26T23:39:51.495Z,4.20
2019-05-26T23:43:53.442Z,4.53
2019-05-26T23:47:55.342Z,5.00
2019-05-26T23:51:58.309Z,4.25
2019-05-26T23:56:00.209Z,4.10
